コルカタ の空港の天気 - METARとTAF

ネータージー・スバース・チャンドラ・ボース国際空港 ( VECC / CCU ) - インド コルカタ
飛行場実況気象(Metar)
観測時間08/07 03:00 IST (08/06 21:30 UTC)
風向・風速静穏 0m/s
視程3500m
天気現象煙霧
全天の4割程度の雲 雲底高度 610m
全天の4割程度の雲 雲底高度 3050m
気温28℃
湿度94%
気圧1001hPa
METARVECC 062130Z 00000KT 3500 HZ SCT020 SCT100 28/27 Q1001 NOSIG
過去の天気等 Google飛行場航空写真 Wunderground天気予報

過去48時間のMETAR

飛行場予報(TAF)
発表時間: 8/07 01:30 IST (8/06 20:00 UTC)
予報対象時間: 7日2時 IST ~ 7日11時 IST
風向・風速南 3m/s
視程3200m
天気現象煙霧
全天の4割程度の雲 雲底高度 550m
全天の4割程度の雲 雲底高度 3050m
7日3時 IST ~ 7日5時 IST に徐々に
風向・風速静穏
視程2600m
天気現象煙霧
7日8時 IST ~ 7日10時 IST に徐々に
風向・風速南 3m/s
視程3500m
天気現象煙霧
TAF VECC 062000Z 0621/0706 17005KT 3200 HZ SCT018 SCT100
BECMG 0622/0624 00000KT 2600 HZ
BECMG 0703/0705 19005KT 3500 HZ